Terminal Aerodrome Forecast
Issued by NWS

Home | Current Version | Previous Version | Text Only | Print | Product List | Glossary Off
Versions: 1 2 3 4 5 6 7 8 9 10 11 12 13 14 15 16 17 18 19 20 21 22 23 24 25 26 27 28 29 30 31 32 33

000
FTUS43 KLOT 010537
TAFORD
TAF
KORD 010537Z 0106/0212 29006KT P6SM SKC
     FM011500 28014G21KT P6SM SCT080
     FM020200 26008KT P6SM SCT250
     FM020900 23011KT P6SM SCT060 BKN180=

USA.gov is the U.S. government's official web portal to all federal, state and local government web resources and services.